New Germany, Canada
Current Conditions -  °F | °C
As of 12:00 AM on Monday 24 Nov 2014 (Local Time) from CYZX Reporting Station
Overcast Overcast  
Wind Chill: 37°   Ceiling: 4500
Heat Index: 37°   Visibility: 10mi
Dew Point: 36°   Wind: 0mph
Humidity: 93%   Direction: NA
Pressure: 30.23"   Gusts: NA
Location:  44.55°N, 64.72°W
Report Text: CYZX 240400Z 00000KT 10SM OVC045 03/02 A3023 RMK SC8 WNDY HILL 23005KT SLP239
Loading
Personal Weather Stations






























Interactive Weather Map New forecast layout! Learn more

10-Day Weather Forecast

Advertisements
Track Severe Weather on mobile